sensor_id;sensor_type;location;lat;lon;timestamp;pressure;altitude;pressure_sealevel;temperature;humidity
21185;BME280;18176;49.502;11.754;2023-08-08T00:03:15;97012.09;;;17.04;61.94
21185;BME280;18176;49.502;11.754;2023-08-08T00:07:16;97014.75;;;17.14;61.54
21185;BME280;18176;49.502;11.754;2023-08-08T00:11:16;96999.75;;;17.18;61.59
21185;BME280;18176;49.502;11.754;2023-08-08T00:15:19;97006.47;;;17.15;61.83
21185;BME280;18176;49.502;11.754;2023-08-08T00:19:19;97006.97;;;17.22;62.31
21185;BME280;18176;49.502;11.754;2023-08-08T00:23:19;97006.97;;;17.27;62.32
21185;BME280;18176;49.502;11.754;2023-08-08T00:27:20;97002.44;;;17.38;62.57
21185;BME280;18176;49.502;11.754;2023-08-08T00:31:23;96991.44;;;17.39;62.89
21185;BME280;18176;49.502;11.754;2023-08-08T00:35:23;96990.88;;;17.68;62.04
21185;BME280;18176;49.502;11.754;2023-08-08T00:39:24;96981.50;;;17.55;62.42
21185;BME280;18176;49.502;11.754;2023-08-08T00:43:24;96992.44;;;17.69;62.82
21185;BME280;18176;49.502;11.754;2023-08-08T00:47:27;96983.59;;;17.68;62.81
21185;BME280;18176;49.502;11.754;2023-08-08T00:51:27;96997.28;;;17.62;62.92
21185;BME280;18176;49.502;11.754;2023-08-08T00:55:28;96987.66;;;17.66;62.83
21185;BME280;18176;49.502;11.754;2023-08-08T00:59:29;96983.38;;;17.54;63.00
21185;BME280;18176;49.502;11.754;2023-08-08T01:03:32;96982.56;;;17.64;63.13
21185;BME280;18176;49.502;11.754;2023-08-08T01:07:41;96992.75;;;17.62;63.32
21185;BME280;18176;49.502;11.754;2023-08-08T01:11:44;96992.75;;;17.57;63.92
21185;BME280;18176;49.502;11.754;2023-08-08T01:15:49;96983.91;;;17.62;63.88
21185;BME280;18176;49.502;11.754;2023-08-08T01:19:52;96968.38;;;17.48;63.67
21185;BME280;18176;49.502;11.754;2023-08-08T01:23:56;96993.03;;;17.56;64.18
21185;BME280;18176;49.502;11.754;2023-08-08T01:28:04;96978.00;;;17.65;63.75
21185;BME280;18176;49.502;11.754;2023-08-08T01:32:06;96990.25;;;17.86;63.60
21185;BME280;18176;49.502;11.754;2023-08-08T01:36:14;96975.75;;;17.87;63.34
21185;BME280;18176;49.502;11.754;2023-08-08T01:40:21;96985.34;;;18.03;62.94
21185;BME280;18176;49.502;11.754;2023-08-08T01:44:28;96978.94;;;17.94;63.35
21185;BME280;18176;49.502;11.754;2023-08-08T01:48:30;96961.25;;;17.98;62.72
21185;BME280;18176;49.502;11.754;2023-08-08T01:52:30;96975.72;;;17.97;62.84
21185;BME280;18176;49.502;11.754;2023-08-08T01:56:32;96980.88;;;17.83;63.31
21185;BME280;18176;49.502;11.754;2023-08-08T02:00:37;96964.50;;;17.85;63.17
21185;BME280;18176;49.502;11.754;2023-08-08T02:04:38;96968.47;;;18.02;63.00
21185;BME280;18176;49.502;11.754;2023-08-08T02:08:39;96969.22;;;18.13;62.62
21185;BME280;18176;49.502;11.754;2023-08-08T02:12:39;96964.38;;;18.15;61.88
21185;BME280;18176;49.502;11.754;2023-08-08T02:16:42;96980.09;;;18.32;62.27
21185;BME280;18176;49.502;11.754;2023-08-08T02:20:43;96982.28;;;18.24;62.53
21185;BME280;18176;49.502;11.754;2023-08-08T02:24:43;96974.94;;;18.45;61.53
21185;BME280;18176;49.502;11.754;2023-08-08T02:28:43;96983.56;;;18.37;61.73
21185;BME280;18176;49.502;11.754;2023-08-08T02:32:48;96960.09;;;18.14;62.07
21185;BME280;18176;49.502;11.754;2023-08-08T02:36:48;96984.19;;;18.19;62.47
21185;BME280;18176;49.502;11.754;2023-08-08T02:40:48;96959.09;;;18.05;62.78
21185;BME280;18176;49.502;11.754;2023-08-08T02:44:51;96970.25;;;18.17;62.91
21185;BME280;18176;49.502;11.754;2023-08-08T02:48:54;96967.34;;;18.13;62.90
21185;BME280;18176;49.502;11.754;2023-08-08T02:52:55;96969.25;;;18.03;63.43
21185;BME280;18176;49.502;11.754;2023-08-08T02:57:01;96965.00;;;17.97;63.09
21185;BME280;18176;49.502;11.754;2023-08-08T03:01:02;96962.66;;;17.85;62.87
21185;BME280;18176;49.502;11.754;2023-08-08T03:05:06;96962.22;;;17.63;63.75
21185;BME280;18176;49.502;11.754;2023-08-08T03:09:08;96963.22;;;17.77;63.39
21185;BME280;18176;49.502;11.754;2023-08-08T03:13:09;96962.97;;;17.69;63.33
21185;BME280;18176;49.502;11.754;2023-08-08T03:17:11;96959.28;;;17.49;63.67
21185;BME280;18176;49.502;11.754;2023-08-08T03:21:14;96972.63;;;17.75;63.47
21185;BME280;18176;49.502;11.754;2023-08-08T03:25:14;96966.97;;;17.81;63.72
21185;BME280;18176;49.502;11.754;2023-08-08T03:29:15;96966.13;;;17.91;63.78
21185;BME280;18176;49.502;11.754;2023-08-08T03:33:18;96959.75;;;17.77;64.30
21185;BME280;18176;49.502;11.754;2023-08-08T03:37:24;96963.75;;;17.79;63.71
21185;BME280;18176;49.502;11.754;2023-08-08T03:41:24;96965.13;;;17.67;63.79
21185;BME280;18176;49.502;11.754;2023-08-08T03:45:25;96949.09;;;17.46;64.43
21185;BME280;18176;49.502;11.754;2023-08-08T03:49:25;96961.94;;;17.60;64.21
21185;BME280;18176;49.502;11.754;2023-08-08T03:53:29;96974.78;;;17.63;64.20
21185;BME280;18176;49.502;11.754;2023-08-08T03:57:30;96970.50;;;17.67;64.15
21185;BME280;18176;49.502;11.754;2023-08-08T04:01:30;96963.03;;;17.59;64.37
21185;BME280;18176;49.502;11.754;2023-08-08T04:05:31;96979.09;;;17.59;64.15
21185;BME280;18176;49.502;11.754;2023-08-08T04:09:34;96971.59;;;17.66;64.07
21185;BME280;18176;49.502;11.754;2023-08-08T04:13:35;96917.78;;;17.37;63.70
21185;BME280;18176;49.502;11.754;2023-08-08T04:17:35;96976.66;;;17.72;63.75
21185;BME280;18176;49.502;11.754;2023-08-08T04:21:36;96972.63;;;17.65;64.20
21185;BME280;18176;49.502;11.754;2023-08-08T04:25:39;96972.34;;;17.71;63.63
21185;BME280;18176;49.502;11.754;2023-08-08T04:29:39;96978.84;;;17.55;64.41
21185;BME280;18176;49.502;11.754;2023-08-08T04:33:40;96975.38;;;17.29;64.59
21185;BME280;18176;49.502;11.754;2023-08-08T04:37:40;96988.72;;;17.65;63.67
21185;BME280;18176;49.502;11.754;2023-08-08T04:41:43;96981.25;;;17.46;63.82
21185;BME280;18176;49.502;11.754;2023-08-08T04:45:43;96992.53;;;17.23;64.61
21185;BME280;18176;49.502;11.754;2023-08-08T04:49:44;96984.50;;;17.23;64.72
21185;BME280;18176;49.502;11.754;2023-08-08T04:53:45;96993.59;;;17.37;64.18
21185;BME280;18176;49.502;11.754;2023-08-08T04:57:48;96998.94;;;17.22;64.53
21185;BME280;18176;49.502;11.754;2023-08-08T05:01:50;96998.41;;;17.35;64.61
21185;BME280;18176;49.502;11.754;2023-08-08T05:05:50;96997.84;;;17.43;64.66
21185;BME280;18176;49.502;11.754;2023-08-08T05:09:51;96990.88;;;17.58;63.79
21185;BME280;18176;49.502;11.754;2023-08-08T05:13:54;96982.81;;;17.68;63.46
21185;BME280;18176;49.502;11.754;2023-08-08T05:17:55;96987.09;;;17.74;63.75
21185;BME280;18176;49.502;11.754;2023-08-08T05:21:56;96989.72;;;17.89;63.50
21185;BME280;18176;49.502;11.754;2023-08-08T05:25:57;96988.13;;;17.83;63.63
21185;BME280;18176;49.502;11.754;2023-08-08T05:30:01;96995.09;;;17.79;63.65
21185;BME280;18176;49.502;11.754;2023-08-08T05:34:02;96990.28;;;17.81;63.61
21185;BME280;18176;49.502;11.754;2023-08-08T05:38:02;96984.94;;;17.76;63.60
21185;BME280;18176;49.502;11.754;2023-08-08T05:42:04;96991.63;;;17.73;63.45
21185;BME280;18176;49.502;11.754;2023-08-08T05:46:07;96983.25;;;17.90;63.93
21185;BME280;18176;49.502;11.754;2023-08-08T05:50:08;96988.59;;;17.95;63.95
21185;BME280;18176;49.502;11.754;2023-08-08T05:54:08;96988.53;;;18.10;63.70
21185;BME280;18176;49.502;11.754;2023-08-08T05:58:09;96978.91;;;18.09;63.98
21185;BME280;18176;49.502;11.754;2023-08-08T06:02:12;96980.19;;;18.16;63.29
21185;BME280;18176;49.502;11.754;2023-08-08T06:06:13;96963.31;;;18.11;63.24
21185;BME280;18176;49.502;11.754;2023-08-08T06:10:13;96984.38;;;18.33;64.38
21185;BME280;18176;49.502;11.754;2023-08-08T06:14:13;96985.41;;;18.47;64.10
21185;BME280;18176;49.502;11.754;2023-08-08T06:18:17;96966.25;;;18.58;63.67
21185;BME280;18176;49.502;11.754;2023-08-08T06:22:18;96976.53;;;18.85;61.96
21185;BME280;18176;49.502;11.754;2023-08-08T06:26:20;96976.41;;;18.66;61.38
21185;BME280;18176;49.502;11.754;2023-08-08T06:30:21;96974.22;;;18.73;61.40
21185;BME280;18176;49.502;11.754;2023-08-08T06:34:24;96975.00;;;19.08;60.69
21185;BME280;18176;49.502;11.754;2023-08-08T06:38:25;96954.06;;;19.05;60.34
21185;BME280;18176;49.502;11.754;2023-08-08T06:42:25;96960.94;;;19.16;60.12
21185;BME280;18176;49.502;11.754;2023-08-08T06:46:30;96980.66;;;19.35;60.07
21185;BME280;18176;49.502;11.754;2023-08-08T06:50:33;96980.13;;;19.38;59.72
21185;BME280;18176;49.502;11.754;2023-08-08T06:54:34;96936.13;;;19.76;58.60
21185;BME280;18176;49.502;11.754;2023-08-08T06:58:34;96973.66;;;19.86;58.16
21185;BME280;18176;49.502;11.754;2023-08-08T07:02:34;96963.00;;;20.23;57.70
21185;BME280;18176;49.502;11.754;2023-08-08T07:06:38;96951.44;;;19.99;57.34
21185;BME280;18176;49.502;11.754;2023-08-08T07:10:39;96958.19;;;20.39;56.98
21185;BME280;18176;49.502;11.754;2023-08-08T07:14:40;96972.06;;;20.27;56.90
21185;BME280;18176;49.502;11.754;2023-08-08T07:18:40;96970.72;;;20.06;56.93
21185;BME280;18176;49.502;11.754;2023-08-08T07:22:43;96970.13;;;19.67;57.30
21185;BME280;18176;49.502;11.754;2023-08-08T07:26:43;96978.25;;;19.86;57.50
21185;BME280;18176;49.502;11.754;2023-08-08T07:30:44;96957.94;;;19.75;58.13
21185;BME280;18176;49.502;11.754;2023-08-08T07:34:44;96953.41;;;20.12;57.34
21185;BME280;18176;49.502;11.754;2023-08-08T07:38:47;96962.06;;;20.09;56.85
21185;BME280;18176;49.502;11.754;2023-08-08T07:42:49;96969.59;;;20.50;55.41
21185;BME280;18176;49.502;11.754;2023-08-08T07:46:49;96968.50;;;20.69;55.72
21185;BME280;18176;49.502;11.754;2023-08-08T07:50:51;96950.25;;;20.48;55.22
21185;BME280;18176;49.502;11.754;2023-08-08T07:54:53;96961.81;;;20.99;54.98
21185;BME280;18176;49.502;11.754;2023-08-08T07:58:54;96946.88;;;21.07;54.21
21185;BME280;18176;49.502;11.754;2023-08-08T08:02:54;96956.75;;;21.43;52.93
21185;BME280;18176;49.502;11.754;2023-08-08T08:06:55;96961.13;;;21.39;52.61
21185;BME280;18176;49.502;11.754;2023-08-08T08:10:58;96935.78;;;22.44;51.46
21185;BME280;18176;49.502;11.754;2023-08-08T08:14:59;96942.19;;;22.70;50.17
21185;BME280;18176;49.502;11.754;2023-08-08T08:18:59;96936.31;;;22.90;48.54
21185;BME280;18176;49.502;11.754;2023-08-08T08:22:59;96938.56;;;23.50;47.36
21185;BME280;18176;49.502;11.754;2023-08-08T08:27:03;96943.78;;;24.33;45.83
21185;BME280;18176;49.502;11.754;2023-08-08T08:31:07;96946.19;;;24.78;44.94
21185;BME280;18176;49.502;11.754;2023-08-08T08:35:09;96943.13;;;24.28;45.49
21185;BME280;18176;49.502;11.754;2023-08-08T08:39:10;96923.19;;;25.01;43.34
21185;BME280;18176;49.502;11.754;2023-08-08T08:43:15;96921.78;;;24.43;44.67
21185;BME280;18176;49.502;11.754;2023-08-08T08:47:19;96921.97;;;25.36;42.63
21185;BME280;18176;49.502;11.754;2023-08-08T08:51:21;96901.50;;;26.76;41.02
21185;BME280;18176;49.502;11.754;2023-08-08T08:55:21;96926.94;;;25.34;42.21
21185;BME280;18176;49.502;11.754;2023-08-08T08:59:25;96907.88;;;24.71;42.73
21185;BME280;18176;49.502;11.754;2023-08-08T09:03:25;96932.16;;;24.59;43.28
21185;BME280;18176;49.502;11.754;2023-08-08T09:07:27;96918.72;;;24.71;43.67
21185;BME280;18176;49.502;11.754;2023-08-08T09:11:28;96915.78;;;25.27;41.23
21185;BME280;18176;49.502;11.754;2023-08-08T09:15:34;96907.88;;;25.51;41.67
21185;BME280;18176;49.502;11.754;2023-08-08T09:19:34;96896.72;;;26.32;40.09
21185;BME280;18176;49.502;11.754;2023-08-08T09:23:37;96906.41;;;25.16;40.28
21185;BME280;18176;49.502;11.754;2023-08-08T09:27:41;96898.91;;;25.13;41.73
21185;BME280;18176;49.502;11.754;2023-08-08T09:31:46;96887.78;;;24.89;41.27
21185;BME280;18176;49.502;11.754;2023-08-08T09:35:47;96888.63;;;26.03;40.43
21185;BME280;18176;49.502;11.754;2023-08-08T09:39:56;96885.75;;;27.14;37.66
21185;BME280;18176;49.502;11.754;2023-08-08T09:43:59;96877.72;;;25.06;38.99
21185;BME280;18176;49.502;11.754;2023-08-08T09:48:05;96880.47;;;24.64;39.64
21185;BME280;18176;49.502;11.754;2023-08-08T09:52:06;96895.50;;;24.35;39.58
21185;BME280;18176;49.502;11.754;2023-08-08T09:56:07;96882.38;;;26.02;37.87
21185;BME280;18176;49.502;11.754;2023-08-08T10:00:10;96875.91;;;27.22;36.02
21185;BME280;18176;49.502;11.754;2023-08-08T10:04:17;96865.38;;;26.55;36.27
21185;BME280;18176;49.502;11.754;2023-08-08T10:08:18;96862.13;;;26.00;37.13
21185;BME280;18176;49.502;11.754;2023-08-08T10:12:19;96871.66;;;26.06;36.29
21185;BME280;18176;49.502;11.754;2023-08-08T10:16:22;96863.72;;;26.01;36.82
21185;BME280;18176;49.502;11.754;2023-08-08T10:20:32;96868.56;;;26.36;36.26
21185;BME280;18176;49.502;11.754;2023-08-08T10:24:34;96857.13;;;26.31;35.21
21185;BME280;18176;49.502;11.754;2023-08-08T10:28:35;96865.69;;;25.92;36.56
21185;BME280;18176;49.502;11.754;2023-08-08T10:32:40;96856.94;;;26.15;35.83
21185;BME280;18176;49.502;11.754;2023-08-08T10:36:49;96867.69;;;27.55;32.92
21185;BME280;18176;49.502;11.754;2023-08-08T10:40:56;96857.59;;;26.86;33.11
21185;BME280;18176;49.502;11.754;2023-08-08T10:45:00;96860.19;;;27.52;32.67
21185;BME280;18176;49.502;11.754;2023-08-08T10:49:05;96838.84;;;27.90;33.43
21185;BME280;18176;49.502;11.754;2023-08-08T10:53:09;96840.94;;;28.61;32.32
21185;BME280;18176;49.502;11.754;2023-08-08T10:57:16;96848.63;;;27.67;32.41
21185;BME280;18176;49.502;11.754;2023-08-08T11:01:17;96844.59;;;28.25;31.91
21185;BME280;18176;49.502;11.754;2023-08-08T11:05:18;96843.41;;;28.93;31.13
21185;BME280;18176;49.502;11.754;2023-08-08T11:09:24;96849.00;;;28.29;32.34
21185;BME280;18176;49.502;11.754;2023-08-08T11:13:25;96846.72;;;28.31;31.56
21185;BME280;18176;49.502;11.754;2023-08-08T11:17:26;96852.59;;;28.45;31.20
21185;BME280;18176;49.502;11.754;2023-08-08T11:21:27;96838.25;;;29.35;30.45
21185;BME280;18176;49.502;11.754;2023-08-08T11:25:33;96825.81;;;29.53;29.76
21185;BME280;18176;49.502;11.754;2023-08-08T11:29:34;96848.91;;;29.40;29.58
21185;BME280;18176;49.502;11.754;2023-08-08T11:33:35;96844.91;;;29.06;30.47
21185;BME280;18176;49.502;11.754;2023-08-08T11:37:36;96840.44;;;29.30;29.04
21185;BME280;18176;49.502;11.754;2023-08-08T11:41:41;96843.22;;;29.02;29.32
21185;BME280;18176;49.502;11.754;2023-08-08T11:45:43;96867.88;;;27.86;31.00
21185;BME280;18176;49.502;11.754;2023-08-08T11:49:44;96836.25;;;28.33;30.55
21185;BME280;18176;49.502;11.754;2023-08-08T11:53:50;96843.38;;;28.78;30.10
21185;BME280;18176;49.502;11.754;2023-08-08T11:57:57;96833.44;;;27.66;30.72
21185;BME280;18176;49.502;11.754;2023-08-08T12:01:59;96797.13;;;27.13;30.21
21185;BME280;18176;49.502;11.754;2023-08-08T12:06:01;96835.63;;;26.91;31.06
21185;BME280;18176;49.502;11.754;2023-08-08T12:10:04;96833.44;;;27.54;31.20
21185;BME280;18176;49.502;11.754;2023-08-08T12:14:10;96837.47;;;27.84;31.10
21185;BME280;18176;49.502;11.754;2023-08-08T12:18:11;96845.91;;;27.55;30.59
21185;BME280;18176;49.502;11.754;2023-08-08T12:22:11;96804.19;;;28.42;29.52
21185;BME280;18176;49.502;11.754;2023-08-08T12:26:12;96842.16;;;28.35;29.44
21185;BME280;18176;49.502;11.754;2023-08-08T12:30:15;96819.72;;;28.26;29.82
21185;BME280;18176;49.502;11.754;2023-08-08T12:34:15;96803.75;;;27.37;30.77
21185;BME280;18176;49.502;11.754;2023-08-08T12:38:16;96827.50;;;27.15;32.62
21185;BME280;18176;49.502;11.754;2023-08-08T12:42:16;96833.28;;;27.14;32.18
21185;BME280;18176;49.502;11.754;2023-08-08T12:46:19;96824.44;;;27.90;30.23
21185;BME280;18176;49.502;11.754;2023-08-08T12:50:20;96818.41;;;28.91;30.76
21185;BME280;18176;49.502;11.754;2023-08-08T12:54:21;96822.41;;;29.25;28.81
21185;BME280;18176;49.502;11.754;2023-08-08T12:58:21;96824.72;;;28.24;28.88
21185;BME280;18176;49.502;11.754;2023-08-08T13:02:26;96831.03;;;27.40;30.09
21185;BME280;18176;49.502;11.754;2023-08-08T13:06:26;96825.88;;;28.11;29.56
21185;BME280;18176;49.502;11.754;2023-08-08T13:10:27;96816.97;;;28.26;28.91
21185;BME280;18176;49.502;11.754;2023-08-08T13:14:28;96816.84;;;28.63;28.14
21185;BME280;18176;49.502;11.754;2023-08-08T13:18:31;96822.09;;;28.99;28.00
21185;BME280;18176;49.502;11.754;2023-08-08T13:22:32;96798.94;;;28.49;28.01
21185;BME280;18176;49.502;11.754;2023-08-08T13:26:32;96803.72;;;28.96;27.74
21185;BME280;18176;49.502;11.754;2023-08-08T13:30:33;96815.69;;;29.07;26.76
21185;BME280;18176;49.502;11.754;2023-08-08T13:34:36;96810.63;;;29.21;27.39
21185;BME280;18176;49.502;11.754;2023-08-08T13:38:36;96812.63;;;29.24;27.46
21185;BME280;18176;49.502;11.754;2023-08-08T13:42:37;96794.84;;;29.30;28.24
21185;BME280;18176;49.502;11.754;2023-08-08T13:46:37;96804.47;;;29.74;27.42
21185;BME280;18176;49.502;11.754;2023-08-08T13:50:40;96792.88;;;29.15;28.87
21185;BME280;18176;49.502;11.754;2023-08-08T13:54:40;96800.41;;;29.68;26.37
21185;BME280;18176;49.502;11.754;2023-08-08T13:58:41;96802.59;;;29.28;26.16
21185;BME280;18176;49.502;11.754;2023-08-08T14:02:41;96809.03;;;29.70;26.04
21185;BME280;18176;49.502;11.754;2023-08-08T14:06:44;96800.56;;;30.45;25.43
21185;BME280;18176;49.502;11.754;2023-08-08T14:10:45;96792.63;;;30.59;25.64
21185;BME280;18176;49.502;11.754;2023-08-08T14:14:47;96796.59;;;29.38;26.55
21185;BME280;18176;49.502;11.754;2023-08-08T14:18:47;96762.25;;;29.06;27.02
21185;BME280;18176;49.502;11.754;2023-08-08T14:22:50;96778.09;;;29.16;27.17
21185;BME280;18176;49.502;11.754;2023-08-08T14:26:51;96788.13;;;29.43;27.62
21185;BME280;18176;49.502;11.754;2023-08-08T14:30:51;96797.06;;;30.29;26.99
21185;BME280;18176;49.502;11.754;2023-08-08T14:34:51;96793.31;;;29.01;26.48
21185;BME280;18176;49.502;11.754;2023-08-08T14:38:58;96791.28;;;28.55;27.16
21185;BME280;18176;49.502;11.754;2023-08-08T14:42:59;96808.69;;;28.50;27.46
21185;BME280;18176;49.502;11.754;2023-08-08T14:46:59;96816.78;;;28.75;26.68
21185;BME280;18176;49.502;11.754;2023-08-08T14:51:01;96789.34;;;28.68;26.98
21185;BME280;18176;49.502;11.754;2023-08-08T14:55:06;96786.03;;;29.87;26.70
21185;BME280;18176;49.502;11.754;2023-08-08T14:59:06;96806.94;;;28.86;27.19
21185;BME280;18176;49.502;11.754;2023-08-08T15:03:07;96812.00;;;27.64;28.56
21185;BME280;18176;49.502;11.754;2023-08-08T15:07:07;96785.38;;;27.46;28.30
21185;BME280;18176;49.502;11.754;2023-08-08T15:11:10;96816.88;;;27.47;29.14
21185;BME280;18176;49.502;11.754;2023-08-08T15:15:11;96820.16;;;27.28;29.42
21185;BME280;18176;49.502;11.754;2023-08-08T15:19:12;96807.88;;;27.95;28.76
21185;BME280;18176;49.502;11.754;2023-08-08T15:23:13;96808.31;;;27.97;29.51
21185;BME280;18176;49.502;11.754;2023-08-08T15:27:16;96807.38;;;28.17;28.22
21185;BME280;18176;49.502;11.754;2023-08-08T15:31:17;96801.75;;;28.96;28.40
21185;BME280;18176;49.502;11.754;2023-08-08T15:35:17;96805.03;;;28.86;28.34
21185;BME280;18176;49.502;11.754;2023-08-08T15:39:18;96809.34;;;28.60;27.88
21185;BME280;18176;49.502;11.754;2023-08-08T15:43:23;96827.50;;;28.00;27.78
21185;BME280;18176;49.502;11.754;2023-08-08T15:47:23;96799.34;;;27.96;27.45
21185;BME280;18176;49.502;11.754;2023-08-08T15:51:23;96808.91;;;27.90;28.19
21185;BME280;18176;49.502;11.754;2023-08-08T15:55:23;96814.13;;;27.35;28.88
21185;BME280;18176;49.502;11.754;2023-08-08T15:59:26;96798.50;;;27.07;29.60
21185;BME280;18176;49.502;11.754;2023-08-08T16:03:28;96816.16;;;27.13;30.22
21185;BME280;18176;49.502;11.754;2023-08-08T16:07:31;96816.47;;;26.88;30.06
21185;BME280;18176;49.502;11.754;2023-08-08T16:11:31;96813.78;;;27.00;30.82
21185;BME280;18176;49.502;11.754;2023-08-08T16:15:34;96805.63;;;26.67;30.60
21185;BME280;18176;49.502;11.754;2023-08-08T16:19:34;96800.84;;;27.33;30.68
21185;BME280;18176;49.502;11.754;2023-08-08T16:23:34;96805.31;;;27.38;30.20
21185;BME280;18176;49.502;11.754;2023-08-08T16:27:35;96815.38;;;27.73;29.79
21185;BME280;18176;49.502;11.754;2023-08-08T16:31:38;96805.31;;;27.50;29.87
21185;BME280;18176;49.502;11.754;2023-08-08T16:35:38;96815.53;;;27.53;30.05
21185;BME280;18176;49.502;11.754;2023-08-08T16:39:38;96806.13;;;28.14;29.23
21185;BME280;18176;49.502;11.754;2023-08-08T16:43:41;96808.63;;;27.95;29.79
21185;BME280;18176;49.502;11.754;2023-08-08T16:47:45;96806.56;;;27.52;30.03
21185;BME280;18176;49.502;11.754;2023-08-08T16:51:47;96812.78;;;27.65;30.51
21185;BME280;18176;49.502;11.754;2023-08-08T16:55:47;96803.91;;;28.04;29.62
21185;BME280;18176;49.502;11.754;2023-08-08T16:59:47;96823.13;;;28.23;29.75
21185;BME280;18176;49.502;11.754;2023-08-08T17:03:51;96825.66;;;28.44;29.34
21185;BME280;18176;49.502;11.754;2023-08-08T17:07:51;96819.47;;;28.31;29.72
21185;BME280;18176;49.502;11.754;2023-08-08T17:11:52;96825.03;;;27.83;30.47
21185;BME280;18176;49.502;11.754;2023-08-08T17:15:53;96818.50;;;27.03;31.01
21185;BME280;18176;49.502;11.754;2023-08-08T17:19:56;96825.69;;;27.32;31.02
21185;BME280;18176;49.502;11.754;2023-08-08T17:23:56;96826.16;;;27.70;30.71
21185;BME280;18176;49.502;11.754;2023-08-08T17:27:56;96824.81;;;27.76;30.65
21185;BME280;18176;49.502;11.754;2023-08-08T17:31:57;96809.59;;;27.63;30.68
21185;BME280;18176;49.502;11.754;2023-08-08T17:36:01;96821.16;;;27.11;31.06
21185;BME280;18176;49.502;11.754;2023-08-08T17:40:01;96821.16;;;27.11;31.79
21185;BME280;18176;49.502;11.754;2023-08-08T17:44:02;96807.63;;;27.03;32.25
21185;BME280;18176;49.502;11.754;2023-08-08T17:48:06;96815.16;;;26.73;32.64
21185;BME280;18176;49.502;11.754;2023-08-08T17:52:09;96815.34;;;26.56;32.87
21185;BME280;18176;49.502;11.754;2023-08-08T17:56:09;96805.63;;;26.34;33.33
21185;BME280;18176;49.502;11.754;2023-08-08T18:00:11;96816.56;;;26.26;33.84
21185;BME280;18176;49.502;11.754;2023-08-08T18:04:11;96792.78;;;25.82;34.08
21185;BME280;18176;49.502;11.754;2023-08-08T18:08:14;96824.50;;;25.69;34.78
21185;BME280;18176;49.502;11.754;2023-08-08T18:12:15;96821.06;;;25.51;35.26
21185;BME280;18176;49.502;11.754;2023-08-08T18:16:15;96829.81;;;25.57;35.23
21185;BME280;18176;49.502;11.754;2023-08-08T18:20:15;96816.59;;;25.18;35.29
21185;BME280;18176;49.502;11.754;2023-08-08T18:24:18;96826.00;;;25.20;35.83
21185;BME280;18176;49.502;11.754;2023-08-08T18:28:19;96826.47;;;25.22;35.98
21185;BME280;18176;49.502;11.754;2023-08-08T18:32:19;96837.34;;;25.05;36.50
21185;BME280;18176;49.502;11.754;2023-08-08T18:36:20;96818.63;;;24.83;36.77
21185;BME280;18176;49.502;11.754;2023-08-08T18:40:23;96833.13;;;24.95;37.35
21185;BME280;18176;49.502;11.754;2023-08-08T18:44:23;96830.72;;;24.94;37.49
21185;BME280;18176;49.502;11.754;2023-08-08T18:48:24;96844.94;;;24.91;37.88
21185;BME280;18176;49.502;11.754;2023-08-08T18:52:24;96834.25;;;24.69;38.43
21185;BME280;18176;49.502;11.754;2023-08-08T18:56:27;96825.19;;;24.65;38.09
21185;BME280;18176;49.502;11.754;2023-08-08T19:00:29;96824.72;;;24.63;38.37
21185;BME280;18176;49.502;11.754;2023-08-08T19:04:30;96813.91;;;24.46;39.19
21185;BME280;18176;49.502;11.754;2023-08-08T19:08:30;96834.13;;;24.65;38.65
21185;BME280;18176;49.502;11.754;2023-08-08T19:12:33;96796.41;;;24.34;39.66
21185;BME280;18176;49.502;11.754;2023-08-08T19:16:35;96835.56;;;24.46;39.50
21185;BME280;18176;49.502;11.754;2023-08-08T19:20:36;96847.38;;;24.50;39.28
21185;BME280;18176;49.502;11.754;2023-08-08T19:24:36;96853.09;;;24.48;38.40
21185;BME280;18176;49.502;11.754;2023-08-08T19:28:39;96855.66;;;24.45;38.47
21185;BME280;18176;49.502;11.754;2023-08-08T19:32:39;96864.56;;;24.36;39.23
21185;BME280;18176;49.502;11.754;2023-08-08T19:36:40;96854.69;;;24.58;38.70
21185;BME280;18176;49.502;11.754;2023-08-08T19:40:40;96851.19;;;24.49;38.91
21185;BME280;18176;49.502;11.754;2023-08-08T19:44:43;96858.84;;;24.47;38.65
21185;BME280;18176;49.502;11.754;2023-08-08T19:48:43;96829.22;;;24.24;39.01
21185;BME280;18176;49.502;11.754;2023-08-08T19:52:45;96861.06;;;24.45;38.63
21185;BME280;18176;49.502;11.754;2023-08-08T19:56:45;96863.91;;;24.57;38.63
21185;BME280;18176;49.502;11.754;2023-08-08T20:00:48;96846.41;;;24.37;38.82
21185;BME280;18176;49.502;11.754;2023-08-08T20:04:50;96865.84;;;24.48;39.17
21185;BME280;18176;49.502;11.754;2023-08-08T20:08:51;96857.75;;;24.22;39.56
21185;BME280;18176;49.502;11.754;2023-08-08T20:12:52;96861.06;;;24.45;39.17
21185;BME280;18176;49.502;11.754;2023-08-08T20:16:55;96866.50;;;24.45;39.27
21185;BME280;18176;49.502;11.754;2023-08-08T20:20:56;96858.69;;;24.34;40.31
21185;BME280;18176;49.502;11.754;2023-08-08T20:24:56;96868.41;;;24.44;40.32
21185;BME280;18176;49.502;11.754;2023-08-08T20:28:57;96863.16;;;24.30;40.62
21185;BME280;18176;49.502;11.754;2023-08-08T20:33:00;96865.03;;;24.38;40.25
21185;BME280;18176;49.502;11.754;2023-08-08T20:37:01;96845.94;;;24.43;40.53
21185;BME280;18176;49.502;11.754;2023-08-08T20:41:03;96853.91;;;24.31;40.37
21185;BME280;18176;49.502;11.754;2023-08-08T20:45:06;96845.78;;;24.14;40.41
21185;BME280;18176;49.502;11.754;2023-08-08T20:49:09;96855.81;;;24.14;40.73
21185;BME280;18176;49.502;11.754;2023-08-08T20:53:10;96866.50;;;24.10;40.68
21185;BME280;18176;49.502;11.754;2023-08-08T20:57:10;96855.97;;;24.09;40.77
21185;BME280;18176;49.502;11.754;2023-08-08T21:01:11;96855.13;;;23.91;41.14
21185;BME280;18176;49.502;11.754;2023-08-08T21:05:15;96810.00;;;23.44;41.37